Time;durP1;ratioP1;P1;durP2;ratioP2;P2;SDS_P1;SDS_P2;PMS_P1;PMS_P2;Temp;Humidity;BMP_temperature;BMP_pressure;BME280_temperature;BME280_humidity;BME280_pressure;Samples;Min_cycle;Max_cycle;Signal;HPM_P1;HPM_P2
2022/11/15 00:01:40;;;;;;;33.30;12.90;;;;;;;;;;5022730;28;20033;-62
2022/11/15 00:04:05;;;;;;;32.35;13.02;;;;;;;;;;5027952;28;20026;-62
2022/11/15 00:06:31;;;;;;;30.63;12.65;;;;;;;;;;5029595;28;20025;-62
2022/11/15 00:09:00;;;;;;;31.27;13.07;;;;;;;;;;5022041;28;20050;-61
2022/11/15 00:11:26;;;;;;;28.75;12.85;;;;;;;;;;5024072;28;20037;-62
2022/11/15 00:13:55;;;;;;;25.83;11.25;;;;;;;;;;5028909;28;20037;-61
2022/11/15 00:16:20;;;;;;;24.20;11.35;;;;;;;;;;5027172;28;20025;-61
2022/11/15 00:18:45;;;;;;;25.70;12.40;;;;;;;;;;5025104;28;20021;-62
2022/11/15 00:21:12;;;;;;;28.95;12.52;;;;;;;;;;5028602;28;20033;-61
2022/11/15 00:23:38;;;;;;;28.52;11.07;;;;;;;;;;5028816;28;20450;-62
2022/11/15 00:26:04;;;;;;;28.83;12.15;;;;;;;;;;5028244;28;20538;-61
2022/11/15 00:28:29;;;;;;;25.55;11.57;;;;;;;;;;5008978;28;20454;-61
2022/11/15 00:31:06;;;;;;;30.23;11.43;;;;;;;;;;5009283;28;20026;-61
2022/11/15 00:33:32;;;;;;;28.80;12.15;;;;;;;;;;5028969;28;20048;-61
2022/11/15 00:36:06;;;;;;;24.70;11.70;;;;;;;;;;5028113;28;20103;-61
2022/11/15 00:38:32;;;;;;;;;;;;;;;;;;5009534;28;20036;-62
2022/11/15 00:40:57;;;;;;;22.40;10.30;;;;;;;;;;5028590;28;19928;-62
2022/11/15 00:43:23;;;;;;;24.13;9.88;;;;;;;;;;5027894;28;20029;-61
2022/11/15 00:45:48;;;;;;;25.95;11.65;;;;;;;;;;5021431;28;20021;-61
2022/11/15 00:48:13;;;;;;;28.13;10.95;;;;;;;;;;5028341;28;20033;-62
2022/11/15 00:50:39;;;;;;;22.42;10.07;;;;;;;;;;5026685;28;20034;-62
2022/11/15 00:53:04;;;;;;;26.42;11.43;;;;;;;;;;5024832;28;20041;-62
2022/11/15 00:55:29;;;;;;;27.77;10.57;;;;;;;;;;5011672;28;20029;-62
2022/11/15 00:57:55;;;;;;;24.50;10.57;;;;;;;;;;5008510;28;20033;-62
2022/11/15 01:00:20;;;;;;;22.35;9.98;;;;;;;;;;5008278;28;20057;-61
2022/11/15 01:02:45;;;;;;;23.85;12.02;;;;;;;;;;5007932;28;20499;-61
2022/11/15 01:05:11;;;;;;;23.80;11.30;;;;;;;;;;5007893;28;20153;-61
2022/11/15 01:07:36;;;;;;;22.02;10.57;;;;;;;;;;5008696;28;20120;-61
2022/11/15 01:10:01;;;;;;;26.00;12.07;;;;;;;;;;5018139;28;20450;-61
2022/11/15 01:12:27;;;;;;;23.92;10.93;;;;;;;;;;5029822;28;20518;-61
2022/11/15 01:14:52;;;;;;;23.60;10.90;;;;;;;;;;5028111;28;20029;-61
2022/11/15 01:17:17;;;;;;;27.40;11.10;;;;;;;;;;5028329;28;20037;-61
2022/11/15 01:19:43;;;;;;;26.35;10.82;;;;;;;;;;5040260;28;20112;-61
2022/11/15 01:22:08;;;;;;;25.25;11.68;;;;;;;;;;5027883;28;20096;-61
2022/11/15 01:24:33;;;;;;;24.50;11.10;;;;;;;;;;5027699;28;20384;-62
2022/11/15 01:26:59;;;;;;;26.02;11.52;;;;;;;;;;5025672;28;20042;-62
2022/11/15 01:29:24;;;;;;;25.15;10.18;;;;;;;;;;5024164;28;20068;-62
2022/11/15 01:31:49;;;;;;;21.25;9.88;;;;;;;;;;5024579;28;20060;-62
2022/11/15 01:34:15;;;;;;;20.50;10.32;;;;;;;;;;5024776;28;20014;-62
2022/11/15 01:36:40;;;;;;;25.27;10.98;;;;;;;;;;5025016;28;20048;-62
2022/11/15 01:39:05;;;;;;;27.38;9.40;;;;;;;;;;5024836;28;20038;-61
2022/11/15 01:41:32;;;;;;;23.20;9.63;;;;;;;;;;5024784;28;20121;-61
2022/11/15 01:44:33;;;;;;;23.75;9.52;;;;;;;;;;5019509;28;20069;-61
2022/11/15 01:47:00;;;;;;;22.75;8.65;;;;;;;;;;5006459;28;20096;-61
2022/11/15 01:49:29;;;;;;;25.35;8.38;;;;;;;;;;5007370;28;20034;-62
2022/11/15 01:51:54;;;;;;;23.05;8.43;;;;;;;;;;5024195;28;20037;-61
2022/11/15 01:54:23;;;;;;;17.33;7.57;;;;;;;;;;5008314;28;20039;-62
2022/11/15 01:56:54;;;;;;;16.02;7.82;;;;;;;;;;5007014;28;20037;-61
2022/11/15 01:59:20;;;;;;;18.88;7.90;;;;;;;;;;5007448;28;20416;-61
2022/11/15 02:01:45;;;;;;;15.00;7.30;;;;;;;;;;5005473;28;20033;-62
2022/11/15 02:04:15;;;;;;;15.52;7.03;;;;;;;;;;5007282;28;20025;-61
2022/11/15 02:06:42;;;;;;;14.60;6.90;;;;;;;;;;5022253;28;20486;-61
2022/11/15 02:09:07;;;;;;;14.85;6.53;;;;;;;;;;5026310;28;20064;-61
2022/11/15 02:11:33;;;;;;;12.82;6.07;;;;;;;;;;5025379;28;20037;-62
2022/11/15 02:14:01;;;;;;;16.40;7.15;;;;;;;;;;5026640;28;20033;-62
2022/11/15 02:16:41;;;;;;;14.25;5.75;;;;;;;;;;5026847;28;20053;-61
2022/11/15 02:19:28;;;;;;;18.65;6.93;;;;;;;;;;5026697;28;20507;-62
2022/11/15 02:22:16;;;;;;;15.02;6.05;;;;;;;;;;5026895;28;20030;-61
2022/11/15 02:25:00;;;;;;;16.70;7.00;;;;;;;;;;5046240;28;20051;-61
2022/11/15 02:27:51;;;;;;;17.60;6.32;;;;;;;;;;5026771;28;20049;-61
2022/11/15 02:30:37;;;;;;;18.70;6.53;;;;;;;;;;5026431;28;20088;-61
2022/11/15 02:33:28;;;;;;;13.52;6.30;;;;;;;;;;5006412;28;20538;-61
2022/11/15 02:36:02;;;;;;;11.65;5.47;;;;;;;;;;5021764;28;20072;-61
2022/11/15 02:38:36;;;;;;;12.65;5.40;;;;;;;;;;5006604;28;20033;-61
2022/11/15 02:41:06;;;;;;;13.50;5.15;;;;;;;;;;5008261;28;20042;-61
2022/11/15 02:43:57;;;;;;;13.25;4.72;;;;;;;;;;5006195;28;20037;-61
2022/11/15 02:47:15;;;;;;;10.75;5.07;;;;;;;;;;5006248;28;20522;-61
2022/11/15 02:49:16;;;;;;;11.18;4.35;;;;;;;;;;5010396;28;20033;-62
2022/11/15 02:51:43;;;;;;;14.52;5.20;;;;;;;;;;5019846;28;20072;-62
2022/11/15 02:54:21;;;;;;;11.30;4.63;;;;;;;;;;5025926;28;20033;-62
2022/11/15 02:56:47;;;;;;;11.90;4.28;;;;;;;;;;5025714;28;20522;-62
2022/11/15 02:59:34;;;;;;;10.25;4.50;;;;;;;;;;5007653;28;20034;-62
2022/11/15 03:02:28;;;;;;;9.82;4.45;;;;;;;;;;5005109;28;20577;-61
2022/11/15 03:05:04;;;;;;;11.38;4.05;;;;;;;;;;5019348;28;20061;-61
2022/11/15 03:07:35;;;;;;;9.52;4.63;;;;;;;;;;5025513;28;20029;-61
2022/11/15 03:10:03;;;;;;;8.48;4.70;;;;;;;;;;5025249;28;20179;-61
2022/11/15 03:12:48;;;;;;;9.25;4.40;;;;;;;;;;5040807;28;20053;-62
2022/11/15 03:15:21;;;;;;;10.23;4.55;;;;;;;;;;5045144;28;20772;-61
2022/11/15 03:18:01;;;;;;;10.43;4.28;;;;;;;;;;5044712;28;20052;-62
2022/11/15 03:20:29;;;;;;;7.63;4.13;;;;;;;;;;5044653;28;20518;-61
2022/11/15 03:22:59;;;;;;;10.20;3.35;;;;;;;;;;5045440;28;20043;-62
2022/11/15 03:25:28;;;;;;;13.05;3.72;;;;;;;;;;5032919;28;20042;-61
2022/11/15 03:27:57;;;;;;;13.20;3.85;;;;;;;;;;5030867;28;20040;-61
2022/11/15 03:30:22;;;;;;;6.78;3.17;;;;;;;;;;5045215;28;20696;-62
2022/11/15 03:32:53;;;;;;;8.27;3.60;;;;;;;;;;5042254;28;20120;-61
2022/11/15 03:35:21;;;;;;;7.22;2.95;;;;;;;;;;5043676;28;20060;-62
2022/11/15 03:38:08;;;;;;;4.57;3.03;;;;;;;;;;5044953;28;20071;-62
2022/11/15 03:40:38;;;;;;;6.00;2.65;;;;;;;;;;5027805;28;20041;-62
2022/11/15 03:43:35;;;;;;;6.32;2.72;;;;;;;;;;5025101;28;20025;-62
2022/11/15 03:46:04;;;;;;;7.97;2.65;;;;;;;;;;5023940;28;20036;-62
2022/11/15 03:48:43;;;;;;;6.57;2.10;;;;;;;;;;5045085;28;20037;-62
2022/11/15 03:51:09;;;;;;;6.00;2.28;;;;;;;;;;5045252;28;20033;-61
2022/11/15 03:53:34;;;;;;;10.48;2.75;;;;;;;;;;5042811;28;20611;-62
2022/11/15 03:56:00;;;;;;;5.55;2.53;;;;;;;;;;5017358;28;20061;-61
2022/11/15 03:58:25;;;;;;;10.38;2.22;;;;;;;;;;5005286;28;20030;-62
2022/11/15 04:00:50;;;;;;;6.25;2.67;;;;;;;;;;5005392;28;20026;-62
2022/11/15 04:03:16;;;;;;;4.75;2.72;;;;;;;;;;5005262;28;20104;-61
2022/11/15 04:05:41;;;;;;;5.32;2.50;;;;;;;;;;5005428;28;20034;-62
2022/11/15 04:08:06;;;;;;;4.97;2.50;;;;;;;;;;5017686;28;20033;-61
2022/11/15 04:10:32;;;;;;;5.55;2.13;;;;;;;;;;5025248;28;20091;-61
2022/11/15 04:12:57;;;;;;;8.88;2.63;;;;;;;;;;5025039;28;20036;-61
2022/11/15 04:15:23;;;;;;;6.15;2.70;;;;;;;;;;5023092;28;20124;-62
2022/11/15 04:17:53;;;;;;;8.45;2.67;;;;;;;;;;5024896;28;20037;-61
2022/11/15 04:25:55;;;;;;;3.55;1.90;;;;;;;;;;5008384;28;20526;-62
2022/11/15 04:28:21;;;;;;;8.43;2.15;;;;;;;;;;5008943;28;20076;-62
2022/11/15 04:30:47;;;;;;;3.55;2.00;;;;;;;;;;5008968;28;20018;-62
2022/11/15 04:33:12;;;;;;;4.43;1.75;;;;;;;;;;5013889;28;20061;-61
2022/11/15 04:35:37;;;;;;;6.00;2.00;;;;;;;;;;5027225;28;20042;-62
2022/11/15 04:38:05;;;;;;;5.88;2.30;;;;;;;;;;5028444;28;20091;-61
2022/11/15 04:40:31;;;;;;;7.68;2.40;;;;;;;;;;5027984;28;20041;-61
2022/11/15 04:42:57;;;;;;;7.72;2.42;;;;;;;;;;5028125;28;20540;-62
2022/11/15 04:45:22;;;;;;;3.88;1.95;;;;;;;;;;5026640;28;20041;-61
2022/11/15 04:47:47;;;;;;;6.50;2.17;;;;;;;;;;5027177;28;20044;-61
2022/11/15 04:50:14;;;;;;;5.25;1.80;;;;;;;;;;5027698;28;20041;-63
2022/11/15 04:52:49;;;;;;;3.25;2.00;;;;;;;;;;5027838;28;20566;-62
2022/11/15 04:55:14;;;;;;;4.60;2.05;;;;;;;;;;5028453;28;20052;-61
2022/11/15 04:57:40;;;;;;;6.43;2.00;;;;;;;;;;5028254;28;20095;-62
2022/11/15 05:00:08;;;;;;;5.05;1.90;;;;;;;;;;5022424;28;20471;-61
2022/11/15 05:05:18;;;;;;;6.55;1.60;;;;;;;;;;5008302;28;20096;-61
2022/11/15 05:07:43;;;;;;;3.65;1.85;;;;;;;;;;5007516;28;20504;-61
2022/11/15 05:10:09;;;;;;;3.38;1.90;;;;;;;;;;5007787;28;20053;-61
2022/11/15 05:12:35;;;;;;;5.10;2.50;;;;;;;;;;5022768;28;20060;-61
2022/11/15 05:15:00;;;;;;;4.65;2.20;;;;;;;;;;5021178;28;20051;-62
2022/11/15 05:17:25;;;;;;;11.13;3.53;;;;;;;;;;5027641;28;20038;-61
2022/11/15 05:19:51;;;;;;;7.97;3.30;;;;;;;;;;5025800;28;20028;-61
2022/11/15 05:22:17;;;;;;;6.88;3.70;;;;;;;;;;5008725;28;20018;-61
2022/11/15 05:24:42;;;;;;;9.48;3.30;;;;;;;;;;5008201;28;20551;-62
2022/11/15 05:27:08;;;;;;;4.50;2.50;;;;;;;;;;5006734;28;20468;-62
2022/11/15 05:29:33;;;;;;;8.02;2.88;;;;;;;;;;5007554;28;20030;-62
2022/11/15 05:31:59;;;;;;;6.65;2.25;;;;;;;;;;5007512;28;20140;-61
2022/11/15 05:34:25;;;;;;;7.05;2.80;;;;;;;;;;5013090;28;20095;-62
2022/11/15 05:36:50;;;;;;;9.07;2.80;;;;;;;;;;5023086;28;20409;-62
2022/11/15 05:39:16;;;;;;;5.90;2.38;;;;;;;;;;5026841;28;20503;-62
2022/11/15 05:41:52;;;;;;;4.68;2.50;;;;;;;;;;5026632;28;20566;-61
2022/11/15 05:44:21;;;;;;;5.35;2.40;;;;;;;;;;5023278;28;20450;-62
2022/11/15 05:46:50;;;;;;;3.97;2.40;;;;;;;;;;5026815;28;20045;-61
2022/11/15 05:49:18;;;;;;;8.82;2.55;;;;;;;;;;5025338;28;20454;-61
2022/11/15 05:51:45;;;;;;;9.27;2.70;;;;;;;;;;5025543;28;20462;-61
2022/11/15 05:54:11;;;;;;;6.28;2.88;;;;;;;;;;5026413;28;20033;-61
2022/11/15 05:56:37;;;;;;;4.57;2.70;;;;;;;;;;5035037;28;20052;-61
2022/11/15 05:59:03;;;;;;;6.57;2.83;;;;;;;;;;5023444;28;20067;-62
2022/11/15 06:01:29;;;;;;;5.85;3.00;;;;;;;;;;5024834;28;20121;-62
2022/11/15 06:03:54;;;;;;;4.38;2.60;;;;;;;;;;5027123;28;20036;-62
2022/11/15 06:06:20;;;;;;;4.95;2.78;;;;;;;;;;5026709;28;20038;-61
2022/11/15 06:08:45;;;;;;;8.27;3.10;;;;;;;;;;5024506;28;20053;-62
2022/11/15 06:11:10;;;;;;;5.18;2.58;;;;;;;;;;5024314;28;20040;-62
2022/11/15 06:13:36;;;;;;;6.57;2.88;;;;;;;;;;5026370;28;20065;-62
2022/11/15 06:16:01;;;;;;;5.30;2.97;;;;;;;;;;5027159;28;20033;-62
2022/11/15 06:18:27;;;;;;;6.55;2.55;;;;;;;;;;5028391;28;20037;-61
2022/11/15 06:20:52;;;;;;;6.93;3.38;;;;;;;;;;5026110;28;20119;-62
2022/11/15 06:23:18;;;;;;;8.45;3.03;;;;;;;;;;5026425;28;20112;-62
2022/11/15 06:25:43;;;;;;;8.10;2.92;;;;;;;;;;5026063;28;20042;-61
2022/11/15 06:28:08;;;;;;;6.57;3.15;;;;;;;;;;5025977;28;20147;-61
2022/11/15 06:30:34;;;;;;;7.55;2.65;;;;;;;;;;5026888;28;20651;-62
2022/11/15 06:33:04;;;;;;;6.03;3.30;;;;;;;;;;5026297;28;20111;-61
2022/11/15 06:35:30;;;;;;;5.93;2.80;;;;;;;;;;5025634;28;20486;-61
2022/11/15 06:37:56;;;;;;;6.45;2.70;;;;;;;;;;5026199;28;20076;-62
2022/11/15 06:40:21;;;;;;;6.28;2.10;;;;;;;;;;5025619;28;20475;-62
2022/11/15 06:42:47;;;;;;;7.45;3.50;;;;;;;;;;5026511;28;20036;-62
2022/11/15 06:45:12;;;;;;;6.40;2.67;;;;;;;;;;5025885;28;20064;-62
2022/11/15 06:47:47;;;;;;;3.63;2.28;;;;;;;;;;5024764;28;20426;-62
2022/11/15 06:50:12;;;;;;;11.38;3.22;;;;;;;;;;5025696;28;20738;-61
2022/11/15 06:52:37;;;;;;;7.85;3.17;;;;;;;;;;5026098;28;20044;-62
2022/11/15 06:55:03;;;;;;;6.15;2.85;;;;;;;;;;5024144;28;20037;-62
2022/11/15 06:57:28;;;;;;;6.03;3.22;;;;;;;;;;5018448;28;20026;-61
2022/11/15 06:59:53;;;;;;;8.63;3.22;;;;;;;;;;5005581;28;20112;-62
2022/11/15 07:02:19;;;;;;;3.97;2.22;;;;;;;;;;5004857;28;20050;-62
2022/11/15 07:04:44;;;;;;;3.60;2.33;;;;;;;;;;5004793;28;20184;-61
2022/11/15 07:07:09;;;;;;;10.32;2.95;;;;;;;;;;5005018;28;20107;-61
2022/11/15 07:09:35;;;;;;;4.55;2.28;;;;;;;;;;5006022;28;20057;-61
2022/11/15 07:12:00;;;;;;;3.85;2.45;;;;;;;;;;5020585;28;20041;-62
2022/11/15 07:14:25;;;;;;;8.70;2.05;;;;;;;;;;5024059;28;20044;-62
2022/11/15 07:16:51;;;;;;;3.40;2.05;;;;;;;;;;5024305;28;20033;-61
2022/11/15 07:19:16;;;;;;;3.05;1.63;;;;;;;;;;5004913;28;20509;-61
2022/11/15 07:21:41;;;;;;;3.03;1.88;;;;;;;;;;5004541;28;20033;-62
2022/11/15 07:24:07;;;;;;;3.20;1.60;;;;;;;;;;5005274;28;20112;-61
2022/11/15 07:26:32;;;;;;;1.98;1.65;;;;;;;;;;5001992;28;20083;-62
2022/11/15 07:28:57;;;;;;;3.85;1.85;;;;;;;;;;5023369;28;20048;-61
2022/11/15 07:31:23;;;;;;;9.30;2.50;;;;;;;;;;5035683;28;20038;-61
2022/11/15 07:33:48;;;;;;;2.88;1.52;;;;;;;;;;5020316;28;20108;-61
2022/11/15 07:36:13;;;;;;;2.30;1.75;;;;;;;;;;5024909;28;20691;-61
2022/11/15 07:38:38;;;;;;;3.78;2.17;;;;;;;;;;5023520;28;20144;-61
2022/11/15 07:41:05;;;;;;;2.72;1.65;;;;;;;;;;5020343;28;20034;-61
2022/11/15 07:43:32;;;;;;;1.73;1.38;;;;;;;;;;5006472;28;20069;-61
2022/11/15 07:45:58;;;;;;;5.60;2.42;;;;;;;;;;5020854;28;20521;-62
2022/11/15 07:48:23;;;;;;;5.85;2.10;;;;;;;;;;5019235;28;20060;-62
2022/11/15 07:50:48;;;;;;;4.47;1.75;;;;;;;;;;5020422;28;20117;-60
2022/11/15 07:53:14;;;;;;;2.70;1.50;;;;;;;;;;5024418;28;20076;-58
2022/11/15 07:55:40;;;;;;;7.40;1.55;;;;;;;;;;5025175;28;20041;-61
2022/11/15 07:58:09;;;;;;;5.43;1.90;;;;;;;;;;5020141;28;20056;-60
2022/11/15 08:00:34;;;;;;;7.82;2.50;;;;;;;;;;5028588;28;20025;-59
2022/11/15 08:03:11;;;;;;;4.60;2.67;;;;;;;;;;5026130;28;20460;-62
2022/11/15 08:05:38;;;;;;;9.35;3.15;;;;;;;;;;5025283;28;20057;-61
2022/11/15 08:08:04;;;;;;;5.93;3.38;;;;;;;;;;5021782;28;20060;-61
2022/11/15 08:10:30;;;;;;;2.45;1.50;;;;;;;;;;5021115;28;20052;-60
2022/11/15 08:13:07;;;;;;;4.72;2.03;;;;;;;;;;5020165;28;20029;-62
2022/11/15 08:15:34;;;;;;;16.20;2.30;;;;;;;;;;5031612;28;20065;-63
2022/11/15 08:18:03;;;;;;;8.02;2.05;;;;;;;;;;5064693;28;20040;-61
2022/11/15 08:20:29;;;;;;;4.53;2.05;;;;;;;;;;5068391;28;20047;-61
2022/11/15 08:22:59;;;;;;;1.73;1.15;;;;;;;;;;5068228;28;20039;-61
2022/11/15 08:25:28;;;;;;;2.10;1.30;;;;;;;;;;5037993;28;20104;-61
2022/11/15 08:27:58;;;;;;;1.88;1.30;;;;;;;;;;5008217;28;20021;-61
2022/11/15 08:30:25;;;;;;;3.65;2.00;;;;;;;;;;5008759;28;20511;-60
2022/11/15 08:32:51;;;;;;;4.72;2.45;;;;;;;;;;5008146;28;20816;-60
2022/11/15 08:35:18;;;;;;;2.42;1.35;;;;;;;;;;5008802;28;20045;-61
2022/11/15 08:37:43;;;;;;;8.25;2.42;;;;;;;;;;5008596;28;20555;-61
2022/11/15 08:40:09;;;;;;;4.68;1.90;;;;;;;;;;5018880;28;20139;-60
2022/11/15 08:42:35;;;;;;;5.97;2.78;;;;;;;;;;5015524;28;20037;-61
2022/11/15 08:45:00;;;;;;;10.00;2.80;;;;;;;;;;5007775;28;20435;-61
2022/11/15 08:47:26;;;;;;;3.60;2.08;;;;;;;;;;5008462;28;20120;-60
2022/11/15 08:49:51;;;;;;;6.15;3.03;;;;;;;;;;5020014;28;20041;-60
2022/11/15 08:52:17;;;;;;;7.15;2.47;;;;;;;;;;5027190;28;20078;-60
2022/11/15 08:54:42;;;;;;;4.50;2.67;;;;;;;;;;5023161;28;20407;-61
2022/11/15 08:57:09;;;;;;;4.30;2.10;;;;;;;;;;5020537;28;20037;-61
2022/11/15 08:59:35;;;;;;;5.60;2.08;;;;;;;;;;5018878;28;20038;-61
2022/11/15 09:02:00;;;;;;;4.72;2.80;;;;;;;;;;5014795;28;20127;-61
2022/11/15 09:04:25;;;;;;;5.50;2.05;;;;;;;;;;5025868;28;20041;-61
2022/11/15 09:06:51;;;;;;;8.50;2.47;;;;;;;;;;5059691;28;20063;-61
2022/11/15 09:09:16;;;;;;;2.20;1.73;;;;;;;;;;5027081;28;20077;-61
2022/11/15 09:11:41;;;;;;;8.52;2.50;;;;;;;;;;5023750;28;20137;-61
2022/11/15 09:14:13;;;;;;;4.78;1.75;;;;;;;;;;5068029;22;20054;-92
2022/11/15 09:19:04;;;;;;;3.75;2.38;;;;;;;;;;5048627;22;20562;-79
2022/11/15 09:21:30;;;;;;;8.05;2.45;;;;;;;;;;5016711;28;20216;-78
2022/11/15 09:23:55;;;;;;;6.35;2.53;;;;;;;;;;5018770;28;20033;-78
2022/11/15 09:26:21;;;;;;;3.08;1.55;;;;;;;;;;5029547;28;20782;-79
2022/11/15 09:28:46;;;;;;;2.08;1.63;;;;;;;;;;5018136;28;20033;-78
2022/11/15 09:31:11;;;;;;;1.85;1.20;;;;;;;;;;5024255;28;20888;-79
2022/11/15 09:33:37;;;;;;;2.88;1.67;;;;;;;;;;5027339;28;20033;-78
2022/11/15 09:36:05;;;;;;;6.07;1.83;;;;;;;;;;5045244;28;20082;-78
2022/11/15 09:38:30;;;;;;;4.75;1.65;;;;;;;;;;5022279;28;20064;-78
2022/11/15 09:41:11;;;;;;;7.28;2.05;;;;;;;;;;5026099;28;20492;-78
2022/11/15 09:44:02;;;;;;;2.15;1.10;;;;;;;;;;5018790;28;20041;-78
2022/11/15 09:46:50;;;;;;;2.08;1.42;;;;;;;;;;5019611;28;21030;-78
2022/11/15 09:49:17;;;;;;;3.50;1.90;;;;;;;;;;5024084;28;20029;-78
2022/11/15 09:51:49;;;;;;;1.17;1.05;;;;;;;;;;5006535;28;20033;-77
2022/11/15 09:54:39;;;;;;;3.53;1.42;;;;;;;;;;5006359;28;20042;-78
2022/11/15 09:57:13;;;;;;;2.45;1.42;;;;;;;;;;5023689;28;20129;-78
2022/11/15 10:00:07;;;;;;;5.28;1.38;;;;;;;;;;5019540;28;20052;-77
2022/11/15 10:02:48;;;;;;;4.90;1.10;;;;;;;;;;5002315;28;20057;-78
2022/11/15 10:05:18;;;;;;;0.93;0.70;;;;;;;;;;5029023;28;20056;-78
2022/11/15 10:08:03;;;;;;;4.50;1.30;;;;;;;;;;5018817;28;20116;-78
2022/11/15 10:10:59;;;;;;;2.05;1.13;;;;;;;;;;5035588;28;20041;-78
2022/11/15 10:13:30;;;;;;;6.22;1.50;;;;;;;;;;5016510;28;20227;-81
2022/11/15 10:16:13;;;;;;;6.22;1.35;;;;;;;;;;5040135;28;20028;-82
2022/11/15 10:18:47;;;;;;;3.13;0.90;;;;;;;;;;5034484;28;20694;-82
2022/11/15 10:21:20;;;;;;;2.45;1.00;;;;;;;;;;5019410;28;20295;-81
2022/11/15 10:23:45;;;;;;;3.83;2.10;;;;;;;;;;5025120;28;20072;-82
2022/11/15 10:26:18;;;;;;;0.68;0.68;;;;;;;;;;4999657;28;20033;-81
2022/11/15 10:28:44;;;;;;;3.15;1.17;;;;;;;;;;5028175;28;20033;-81
2022/11/15 10:31:27;;;;;;;7.00;1.42;;;;;;;;;;5015939;28;20398;-81
2022/11/15 10:34:14;;;;;;;2.80;0.70;;;;;;;;;;5021975;28;20032;-81
2022/11/15 10:36:44;;;;;;;1.92;0.75;;;;;;;;;;5015348;28;20041;-82
2022/11/15 10:39:12;;;;;;;2.00;1.08;;;;;;;;;;5016966;28;20049;-81
2022/11/15 10:41:40;;;;;;;1.10;0.73;;;;;;;;;;5025889;28;20040;-81
2022/11/15 10:44:44;;;;;;;2.10;1.25;;;;;;;;;;5020356;28;20451;-81
2022/11/15 10:47:31;;;;;;;3.33;0.70;;;;;;;;;;4974725;28;20046;-81
2022/11/15 10:50:28;;;;;;;1.70;1.00;;;;;;;;;;4976564;28;20034;-81
2022/11/15 10:52:54;;;;;;;2.60;0.60;;;;;;;;;;5026917;28;20025;-81
2022/11/15 10:55:25;;;;;;;1.05;0.65;;;;;;;;;;5039294;28;20082;-80
2022/11/15 10:57:57;;;;;;;2.88;1.27;;;;;;;;;;5020212;28;20040;-80
2022/11/15 11:00:55;;;;;;;0.80;0.60;;;;;;;;;;5022724;28;20037;-81
2022/11/15 11:03:40;;;;;;;1.00;0.90;;;;;;;;;;5001514;28;20056;-81
2022/11/15 11:06:48;;;;;;;1.75;1.08;;;;;;;;;;5001555;28;20500;-81
2022/11/15 11:09:57;;;;;;;0.93;0.80;;;;;;;;;;4950717;28;20150;-81
2022/11/15 11:12:36;;;;;;;1.10;0.73;;;;;;;;;;4963312;28;20043;-81
2022/11/15 11:15:19;;;;;;;2.60;0.80;;;;;;;;;;5027212;28;20523;-80
2022/11/15 11:21:23;;;;;;;2.42;0.90;;;;;;;;;;4992735;28;20181;-80
2022/11/15 11:24:25;;;;;;;2.80;0.90;;;;;;;;;;5003984;28;20091;-80
2022/11/15 11:27:31;;;;;;;1.23;0.80;;;;;;;;;;4990318;28;20124;-80
2022/11/15 11:30:20;;;;;;;1.88;0.70;;;;;;;;;;5005141;28;20022;-80
2022/11/15 11:33:30;;;;;;;0.82;0.77;;;;;;;;;;4996413;28;20034;-80
2022/11/15 11:36:43;;;;;;;;;;;;;;;;;;;;;
2022/11/15 11:39:38;;;;;;;4.85;1.20;;;;;;;;;;4978667;28;20052;-80
2022/11/15 11:42:16;;;;;;;6.13;1.10;;;;;;;;;;5020042;28;20030;-82
2022/11/15 11:45:40;;;;;;;1.23;0.75;;;;;;;;;;5002782;28;20064;-90
2022/11/15 11:48:25;;;;;;;2.10;1.20;;;;;;;;;;4912184;28;20082;-83
2022/11/15 11:50:57;;;;;;;2.85;0.70;;;;;;;;;;5005463;28;20037;-82
2022/11/15 11:53:39;;;;;;;1.67;0.98;;;;;;;;;;5015538;28;20048;-82
2022/11/15 11:56:25;;;;;;;1.10;0.95;;;;;;;;;;5009499;28;21670;-82
2022/11/15 11:58:56;;;;;;;4.05;0.90;;;;;;;;;;5022894;28;20080;-82
2022/11/15 12:01:30;;;;;;;4.43;1.17;;;;;;;;;;5015787;28;20561;-82
2022/11/15 12:04:01;;;;;;;1.00;0.90;;;;;;;;;;5013839;28;20053;-82
2022/11/15 12:06:31;;;;;;;1.85;0.98;;;;;;;;;;5024144;28;20030;-82
2022/11/15 12:09:06;;;;;;;1.52;1.00;;;;;;;;;;5001845;28;20045;-82
2022/11/15 12:11:51;;;;;;;3.03;0.90;;;;;;;;;;5014479;28;20067;-81
2022/11/15 12:14:54;;;;;;;1.83;0.70;;;;;;;;;;5008989;28;20041;-83
2022/11/15 12:17:27;;;;;;;0.93;0.60;;;;;;;;;;5004575;28;20719;-82
2022/11/15 12:20:42;;;;;;;1.30;1.00;;;;;;;;;;4976026;28;20156;-83
2022/11/15 12:23:39;;;;;;;1.60;0.60;;;;;;;;;;4930056;28;20397;-83
2022/11/15 12:26:14;;;;;;;1.95;0.60;;;;;;;;;;5000344;28;20077;-82
2022/11/15 12:28:50;;;;;;;1.45;0.80;;;;;;;;;;4985576;28;20134;-78
2022/11/15 12:31:16;;;;;;;1.42;0.80;;;;;;;;;;4991104;28;20038;-84
2022/11/15 12:34:01;;;;;;;2.22;1.17;;;;;;;;;;5017529;28;20039;-88
2022/11/15 12:36:39;;;;;;;4.93;1.27;;;;;;;;;;4993101;28;20034;-83
2022/11/15 12:39:09;;;;;;;1.77;0.95;;;;;;;;;;5020515;28;20056;-85
2022/11/15 12:41:40;;;;;;;2.90;1.00;;;;;;;;;;5011286;28;20029;-85
2022/11/15 12:44:33;;;;;;;2.30;0.80;;;;;;;;;;5011302;28;20117;-83
2022/11/15 12:47:10;;;;;;;1.13;0.90;;;;;;;;;;4999586;28;20047;-83
2022/11/15 12:49:36;;;;;;;2.08;0.80;;;;;;;;;;4991260;28;20049;-82
2022/11/15 12:52:04;;;;;;;2.63;0.88;;;;;;;;;;5006873;28;20026;-85
2022/11/15 12:54:52;;;;;;;3.28;1.17;;;;;;;;;;4995639;28;20041;-81
2022/11/15 12:57:28;;;;;;;5.25;1.00;;;;;;;;;;5023642;28;20136;-82
2022/11/15 13:00:12;;;;;;;2.05;1.15;;;;;;;;;;4999517;28;20037;-79
2022/11/15 13:02:43;;;;;;;;;;;;;;;;;;4999393;28;20285;-82
2022/11/15 13:05:18;;;;;;;0.95;0.77;;;;;;;;;;4995704;28;19918;-81
2022/11/15 13:07:44;;;;;;;1.42;1.33;;;;;;;;;;4993105;28;20093;-81
2022/11/15 13:10:12;;;;;;;2.63;1.23;;;;;;;;;;4988846;28;20026;-81
2022/11/15 13:12:43;;;;;;;4.57;1.02;;;;;;;;;;4996518;28;20025;-84
2022/11/15 13:15:12;;;;;;;4.53;1.38;;;;;;;;;;5015473;28;20045;-82
2022/11/15 13:17:52;;;;;;;1.33;0.85;;;;;;;;;;5013001;28;20041;-88
2022/11/15 13:20:25;;;;;;;3.97;1.42;;;;;;;;;;5019802;28;20041;-84
2022/11/15 13:22:59;;;;;;;0.90;0.60;;;;;;;;;;5008179;28;20056;-80
2022/11/15 13:25:39;;;;;;;1.45;1.05;;;;;;;;;;5033534;28;20046;-83
2022/11/15 13:28:13;;;;;;;1.58;0.98;;;;;;;;;;5005547;28;20048;-82
2022/11/15 13:30:41;;;;;;;0.95;0.70;;;;;;;;;;5017647;28;20036;-85
2022/11/15 13:33:34;;;;;;;1.55;0.90;;;;;;;;;;5033909;28;20033;-79
2022/11/15 13:36:16;;;;;;;2.00;0.98;;;;;;;;;;5007107;28;20046;-79
2022/11/15 13:38:43;;;;;;;1.38;0.90;;;;;;;;;;5016527;28;20041;-81
2022/11/15 13:41:24;;;;;;;0.95;0.60;;;;;;;;;;5020385;28;20593;-80
2022/11/15 13:43:51;;;;;;;1.10;0.80;;;;;;;;;;5007879;28;20060;-82
2022/11/15 13:46:18;;;;;;;2.45;1.52;;;;;;;;;;5020694;28;20083;-81
2022/11/15 13:48:45;;;;;;;3.63;1.08;;;;;;;;;;5024281;28;20098;-81
2022/11/15 13:51:29;;;;;;;1.85;1.13;;;;;;;;;;5032465;28;20033;-81
2022/11/15 13:54:24;;;;;;;1.85;0.93;;;;;;;;;;5033218;28;20409;-82
2022/11/15 13:56:55;;;;;;;1.63;0.95;;;;;;;;;;5017195;28;20063;-81
2022/11/15 13:59:49;;;;;;;1.58;0.80;;;;;;;;;;5022581;28;20034;-80
2022/11/15 14:02:18;;;;;;;1.45;0.90;;;;;;;;;;5000947;28;20577;-79
2022/11/15 14:04:54;;;;;;;2.17;1.13;;;;;;;;;;5030205;28;20037;-82
2022/11/15 14:07:22;;;;;;;1.58;0.82;;;;;;;;;;5028383;28;20047;-83
2022/11/15 14:09:48;;;;;;;1.75;0.98;;;;;;;;;;5036408;28;20474;-83
2022/11/15 14:12:31;;;;;;;2.97;0.93;;;;;;;;;;5028241;28;20032;-91
2022/11/15 14:14:59;;;;;;;1.87;1.13;;;;;;;;;;5026956;28;20049;-88
2022/11/15 14:17:30;;;;;;;1.23;1.10;;;;;;;;;;5034627;28;20800;-86
2022/11/15 14:19:56;;;;;;;1.15;1.05;;;;;;;;;;5027257;28;20049;-91
2022/11/15 14:22:25;;;;;;;4.55;1.60;;;;;;;;;;5043678;28;20052;-85
2022/11/15 14:25:12;;;;;;;1.77;1.27;;;;;;;;;;5036635;28;20025;-85
2022/11/15 14:27:39;;;;;;;3.25;1.65;;;;;;;;;;5026847;28;20054;-89
2022/11/15 14:30:05;;;;;;;3.33;1.45;;;;;;;;;;5018942;28;20547;-80
2022/11/15 14:32:50;;;;;;;3.03;1.23;;;;;;;;;;4996280;28;20045;-85
2022/11/15 14:35:19;;;;;;;2.55;1.42;;;;;;;;;;5029158;28;20071;-85
2022/11/15 14:37:45;;;;;;;2.45;1.10;;;;;;;;;;5020856;28;20037;-81
2022/11/15 14:40:18;;;;;;;1.48;1.13;;;;;;;;;;5040428;28;20036;-81
2022/11/15 14:42:49;;;;;;;1.50;1.17;;;;;;;;;;5021413;28;20668;-84
2022/11/15 14:45:21;;;;;;;2.00;1.23;;;;;;;;;;5015186;28;20033;-82
2022/11/15 14:47:47;;;;;;;2.72;0.88;;;;;;;;;;5023817;28;20037;-91
2022/11/15 14:50:14;;;;;;;2.67;1.65;;;;;;;;;;5021268;28;20456;-86
2022/11/15 14:52:40;;;;;;;5.72;1.70;;;;;;;;;;5017353;28;20049;-86
2022/11/15 14:55:14;;;;;;;2.83;1.88;;;;;;;;;;5025847;28;20413;-81
2022/11/15 14:57:40;;;;;;;2.72;1.65;;;;;;;;;;5020914;28;20441;-80
2022/11/15 15:00:09;;;;;;;3.10;1.60;;;;;;;;;;5014974;28;20541;-82
2022/11/15 15:02:36;;;;;;;1.58;1.25;;;;;;;;;;5023400;28;20446;-87
2022/11/15 15:05:15;;;;;;;4.10;1.58;;;;;;;;;;5021343;28;20042;-85
2022/11/15 15:07:40;;;;;;;9.55;1.80;;;;;;;;;;5034446;28;20037;-78
2022/11/15 15:10:06;;;;;;;2.47;1.73;;;;;;;;;;5015415;28;20044;-80
2022/11/15 15:12:31;;;;;;;3.40;1.73;;;;;;;;;;5023479;28;20031;-78
2022/11/15 15:14:57;;;;;;;1.85;1.30;;;;;;;;;;5018833;28;20503;-86
2022/11/15 15:17:23;;;;;;;2.88;1.55;;;;;;;;;;5020159;28;20705;-78
2022/11/15 15:19:51;;;;;;;4.70;1.35;;;;;;;;;;5008688;28;20049;-79
2022/11/15 15:22:18;;;;;;;2.53;1.67;;;;;;;;;;5014243;28;20104;-90